Kingsport, Tennessee
Current Conditions -  °F | °C
As of 10:53 PM on Thursday 20 Nov 2014 (Local Time) from KTRI Reporting Station
Clear Clear  
Wind Chill: 31°   Ceiling: Unl
Heat Index: 36°   Visibility: 10mi
Dew Point: 19°   Wind: 6mph
Humidity: 50%   Direction: 270°W
Pressure: 30.21"   Gusts: NA
Location:  36.55°N, 82.56°W
Report Text: KTRI 210353Z 27005KT 10SM CLR 02/M07 A3021 RMK AO2 SLP225 T00221072
Loading
Personal Weather Stations






























Interactive Weather Map New forecast layout! Learn more

10-Day Weather Forecast

Advertisements
Track Severe Weather on mobile